Time;durP1;ratioP1;P1;durP2;ratioP2;P2;SDS_P1;SDS_P2;PMS_P1;PMS_P2;Temp;Humidity;BMP_temperature;BMP_pressure;BME280_temperature;BME280_humidity;BME280_pressure;Samples;Min_cycle;Max_cycle;Signal;HPM_P1;HPM_P2
2022/04/12 00:01:58;;;;;;;16.60;15.20;;;;;;;22.30;26.17;95468.94;6111503;28;103083;-80
2022/04/12 00:05:02;;;;;;;17.17;15.70;;;;;;;22.13;26.41;95448.22;6125044;28;102628;-79
2022/04/12 00:08:24;;;;;;;16.53;15.10;;;;;;;22.21;26.70;95452.06;6124532;28;103382;-79
2022/04/12 00:11:26;;;;;;;16.73;15.33;;;;;;;22.26;26.59;95466.09;6120892;28;103255;-79
2022/04/12 00:14:28;;;;;;;16.10;14.80;;;;;;;22.23;26.38;95452.56;6124468;28;103769;-77
2022/04/12 00:20:53;;;;;;;15.57;14.27;;;;;;;22.26;26.35;95455.44;6098996;28;104323;-79
2022/04/12 00:23:54;;;;;;;16.43;14.93;;;;;;;22.28;26.42;95463.13;6126347;28;103565;-79
2022/04/12 00:26:56;;;;;;;16.33;14.97;;;;;;;22.20;26.13;95445.97;6132177;28;104033;-79
2022/04/12 00:29:58;;;;;;;16.20;14.80;;;;;;;22.24;26.53;95456.81;6123778;28;102758;-82
2022/04/12 00:33:00;;;;;;;15.53;14.20;;;;;;;22.23;26.21;95452.56;6121870;28;102892;-79
2022/04/12 00:36:04;;;;;;;16.10;14.70;;;;;;;22.21;26.27;95450.19;6126794;28;102699;-79
2022/04/12 00:39:06;;;;;;;15.77;14.50;;;;;;;22.26;26.32;95451.97;6123983;28;103585;-79
2022/04/12 00:42:08;;;;;;;16.43;15.13;;;;;;;22.22;26.53;95449.13;6122196;28;104276;-78
2022/04/12 00:45:11;;;;;;;16.70;15.30;;;;;;;22.23;26.38;95452.56;6113270;28;103288;-78
2022/04/12 00:48:13;;;;;;;15.67;14.37;;;;;;;22.21;26.18;95452.06;6124252;28;103321;-80
2022/04/12 00:51:15;;;;;;;15.73;14.43;;;;;;;22.17;26.45;95432.41;6124521;28;104997;-80
2022/04/12 00:54:19;;;;;;;16.67;15.27;;;;;;;22.24;26.55;95446.16;6121865;28;103288;-77
2022/04/12 00:57:21;;;;;;;16.50;15.00;;;;;;;22.22;26.35;95443.00;6121418;28;103434;-79
2022/04/12 01:00:24;;;;;;;16.20;14.90;;;;;;;22.24;26.33;95456.81;6105829;28;104932;-79
2022/04/12 01:03:25;;;;;;;16.13;14.83;;;;;;;22.22;26.54;95453.66;6101839;28;103380;-80
2022/04/12 01:06:28;;;;;;;15.10;13.80;;;;;;;22.19;26.61;95447.03;6112192;28;104006;-80
2022/04/12 01:09:30;;;;;;;15.50;14.20;;;;;;;22.21;26.21;95447.53;6115923;28;104131;-79
2022/04/12 01:12:38;;;;;;;16.30;14.90;;;;;;;22.16;26.20;95438.81;6101817;28;106400;-79
2022/04/12 01:15:42;;;;;;;15.00;13.80;;;;;;;22.21;26.48;95441.41;6108820;28;104952;-78
2022/04/12 01:18:44;;;;;;;15.77;14.47;;;;;;;22.17;26.11;95437.75;6124281;28;103732;-78
2022/04/12 01:21:54;;;;;;;15.37;14.03;;;;;;;22.20;26.59;95437.19;6123367;28;104472;-82
2022/04/12 01:24:56;;;;;;;16.20;14.80;;;;;;;22.22;26.61;95449.13;6123627;28;104051;-79
2022/04/12 01:27:58;;;;;;;15.30;14.10;;;;;;;22.21;26.77;95450.19;6120395;28;105650;-78
2022/04/12 01:30:59;;;;;;;15.10;13.90;;;;;;;22.18;26.31;95444.66;6124040;28;102619;-79
2022/04/12 01:34:02;;;;;;;16.17;14.60;;;;;;;22.19;26.35;95446.25;6124007;28;104993;-77
2022/04/12 01:37:04;;;;;;;13.60;12.50;;;;;;;22.19;26.40;95447.03;6116447;28;103587;-79
2022/04/12 01:40:06;;;;;;;14.63;13.43;;;;;;;22.20;26.28;95450.50;6097129;28;104713;-79
2022/04/12 01:43:10;;;;;;;14.40;13.23;;;;;;;22.21;26.20;95450.19;6097884;28;103298;-81
2022/04/12 01:46:12;;;;;;;15.00;13.60;;;;;;;22.19;26.22;95451.59;6134688;28;102935;-79
2022/04/12 01:49:14;;;;;;;13.60;12.40;;;;;;;22.19;26.35;95447.03;6111289;28;105213;-81
2022/04/12 01:52:16;;;;;;;14.53;13.33;;;;;;;22.22;26.55;95448.31;6105825;28;105718;-78
2022/04/12 01:55:18;;;;;;;13.57;12.37;;;;;;;22.20;26.44;95450.50;6123293;28;103526;-78
2022/04/12 01:58:19;;;;;;;13.70;12.60;;;;;;;22.22;26.42;95443.00;6123043;28;103669;-81
2022/04/12 02:01:21;;;;;;;13.53;12.43;;;;;;;22.16;26.47;95438.81;6120610;28;105651;-79
2022/04/12 02:04:23;;;;;;;13.80;12.43;;;;;;;22.20;26.21;95440.63;6116701;28;103900;-80
2022/04/12 02:07:26;;;;;;;14.57;13.30;;;;;;;22.21;26.19;95441.41;6115167;28;103323;-78
2022/04/12 02:10:28;;;;;;;13.83;12.63;;;;;;;22.20;26.53;95445.16;6096109;28;104130;-80
2022/04/12 02:13:30;;;;;;;13.63;12.53;;;;;;;22.18;26.67;95439.31;6117317;28;103715;-80
2022/04/12 02:16:32;;;;;;;12.17;11.23;;;;;;;22.18;26.42;95436.66;6121261;28;102786;-79
2022/04/12 02:19:34;;;;;;;14.47;13.27;;;;;;;22.18;26.37;95431.31;6123089;28;102903;-80
2022/04/12 02:22:37;;;;;;;14.77;13.37;;;;;;;22.20;26.64;95434.50;6118906;28;103497;-78
2022/04/12 02:25:38;;;;;;;13.40;12.27;;;;;;;22.16;26.47;95428.16;6123028;28;105046;-78
2022/04/12 02:28:40;;;;;;;13.93;12.77;;;;;;;22.17;26.69;95435.88;6119192;28;103429;-80
2022/04/12 02:31:42;;;;;;;14.43;13.17;;;;;;;22.19;26.17;95432.94;6121959;28;102825;-80
2022/04/12 02:34:44;;;;;;;13.67;12.57;;;;;;;22.14;26.62;95433.78;6134240;28;103208;-81
2022/04/12 02:37:46;;;;;;;14.23;13.00;;;;;;;22.19;26.23;95441.72;6107127;28;103610;-78
2022/04/12 02:40:49;;;;;;;13.60;12.20;;;;;;;22.17;26.38;95440.41;6097702;28;103091;-78
2022/04/12 02:43:51;;;;;;;13.57;12.37;;;;;;;22.16;26.53;95438.81;6097201;28;104225;-77
2022/04/12 02:46:53;;;;;;;15.93;14.57;;;;;;;22.17;26.58;95445.75;6120589;28;102908;-77
2022/04/12 02:49:56;;;;;;;15.03;13.73;;;;;;;22.19;26.25;95438.25;6099823;28;104969;-77
2022/04/12 02:52:57;;;;;;;15.20;13.90;;;;;;;22.15;26.38;95432.72;6120760;28;105078;-77
2022/04/12 02:55:59;;;;;;;16.10;14.80;;;;;;;22.17;26.62;95440.41;6121164;28;102945;-77
2022/04/12 02:59:01;;;;;;;16.70;15.30;;;;;;;22.15;26.03;95431.91;6127127;28;103429;-77
2022/04/12 03:02:03;;;;;;;17.23;15.70;;;;;;;22.17;26.80;95441.19;6126886;28;103163;-75
2022/04/12 03:05:05;;;;;;;18.63;17.03;;;;;;;22.16;26.73;95444.16;6126134;28;103137;-76
2022/04/12 03:08:07;;;;;;;17.90;16.07;;;;;;;22.16;26.47;95441.50;6124611;28;103589;-81
2022/04/12 03:11:09;;;;;;;16.57;15.13;;;;;;;22.05;26.66;95440.91;6125000;28;103193;-79
2022/04/12 03:14:12;;;;;;;10.47;9.47;;;;;;;21.96;26.00;95442.66;6126931;28;105226;-79
2022/04/12 03:17:13;;;;;;;8.00;7.33;;;;;;;21.85;25.68;95444.75;6122386;28;103601;-80
2022/04/12 03:20:15;;;;;;;9.33;6.70;;;;;;;21.74;24.87;95440.66;6127762;28;102884;-80
2022/04/12 03:23:18;;;;;;;6.00;5.50;;;;;;;21.47;24.52;95444.03;6108769;28;103769;-81
2022/04/12 03:26:20;;;;;;;6.20;5.40;;;;;;;21.38;24.11;95446.56;6119953;28;104360;-81
2022/04/12 03:29:22;;;;;;;6.20;5.60;;;;;;;21.39;24.11;95450.81;6110132;28;103417;-79
2022/04/12 03:32:24;;;;;;;6.07;5.30;;;;;;;21.30;24.32;95449.88;6116147;28;102836;-79
2022/04/12 03:35:26;;;;;;;6.47;5.37;;;;;;;21.14;24.26;95437.88;6125876;28;105194;-79
2022/04/12 03:38:28;;;;;;;5.40;4.90;;;;;;;21.29;23.92;95453.63;6123023;28;103338;-81
2022/04/12 03:41:31;;;;;;;6.50;5.37;;;;;;;21.39;24.19;95450.81;6123299;28;102725;-81
2022/04/12 03:44:32;;;;;;;6.37;5.77;;;;;;;21.36;24.34;95448.75;6128600;28;105300;-83
2022/04/12 03:47:34;;;;;;;8.07;4.63;;;;;;;21.38;23.97;95453.78;6125760;28;103346;-82
2022/04/12 03:50:36;;;;;;;7.63;4.70;;;;;;;21.37;24.09;95447.66;6124127;28;103350;-84
2022/04/12 03:53:38;;;;;;;5.97;4.80;;;;;;;21.19;24.21;95416.53;6128603;28;103013;-83
2022/04/12 03:56:42;;;;;;;8.07;5.40;;;;;;;21.43;24.23;95454.47;6127686;28;105326;-80
2022/04/12 03:59:44;;;;;;;5.63;5.13;;;;;;;21.55;25.48;95456.69;6125908;28;103888;-80
2022/04/12 04:02:46;;;;;;;9.10;5.07;;;;;;;21.58;25.13;95455.31;6120855;28;104272;-81
2022/04/12 04:05:48;;;;;;;7.47;5.23;;;;;;;21.61;25.07;95460.84;6123764;28;106259;-81
2022/04/12 04:08:50;;;;;;;7.20;5.60;;;;;;;21.63;24.67;95464.00;6125450;28;102798;-85
2022/04/12 04:11:52;;;;;;;8.43;5.93;;;;;;;21.59;25.44;95468.31;6144470;28;103357;-81
2022/04/12 04:14:54;;;;;;;6.27;5.67;;;;;;;21.56;25.07;95468.13;6123147;28;103583;-81
2022/04/12 04:17:57;;;;;;;6.00;5.50;;;;;;;21.64;24.74;95475.44;6118893;28;105273;-82
2022/04/12 04:20:58;;;;;;;7.57;4.87;;;;;;;21.57;24.69;95477.69;6125020;28;103079;-80
2022/04/12 04:24:02;;;;;;;8.50;5.47;;;;;;;21.57;24.99;95475.03;6120168;28;103776;-85
2022/04/12 04:27:05;;;;;;;7.33;5.43;;;;;;;21.67;24.79;95477.50;6124355;28;105300;-83
2022/04/12 04:30:09;;;;;;;6.13;5.07;;;;;;;21.64;24.79;95464.78;6123766;28;102825;-79
2022/04/12 04:33:11;;;;;;;8.50;5.97;;;;;;;21.74;24.61;95475.28;6124363;28;103083;-79
2022/04/12 04:36:13;;;;;;;7.00;6.40;;;;;;;21.76;24.86;95473.91;6128821;28;102540;-83
2022/04/12 04:39:17;;;;;;;9.00;7.63;;;;;;;21.80;24.93;95480.22;6127213;28;106064;-79
2022/04/12 04:42:24;;;;;;;10.27;9.17;;;;;;;21.83;25.57;95478.06;6124140;28;103429;-80
2022/04/12 04:45:26;;;;;;;14.07;12.33;;;;;;;21.81;25.40;95481.00;6122536;28;105162;-82
2022/04/12 04:48:28;;;;;;;15.27;13.80;;;;;;;21.85;25.54;95481.25;6124315;28;103280;-82
2022/04/12 04:51:30;;;;;;;14.80;13.50;;;;;;;21.85;25.57;95476.72;6126655;28;103446;-80
2022/04/12 04:54:32;;;;;;;15.77;14.27;;;;;;;21.82;25.22;95477.28;6126210;28;103587;-80
2022/04/12 04:57:38;;;;;;;15.40;14.10;;;;;;;21.89;25.36;95490.25;6124046;28;102710;-82
2022/04/12 05:00:40;;;;;;;15.57;14.17;;;;;;;21.87;25.85;95484.41;6127661;28;102712;-81
2022/04/12 05:03:42;;;;;;;17.40;15.90;;;;;;;21.95;25.72;95491.72;6126572;28;105365;-79
2022/04/12 05:06:45;;;;;;;16.40;14.80;;;;;;;21.99;25.92;95492.72;6122323;28;102922;-81
2022/04/12 05:09:46;;;;;;;16.47;14.90;;;;;;;21.99;25.21;95490.84;6126588;28;103191;-79
2022/04/12 05:12:48;;;;;;;15.70;14.23;;;;;;;22.04;25.46;95495.31;6126571;28;103332;-78
2022/04/12 05:15:50;;;;;;;16.27;14.73;;;;;;;22.07;25.49;95500.03;6124704;28;104925;-80
2022/04/12 05:18:52;;;;;;;14.70;13.40;;;;;;;22.06;25.59;95496.59;6121190;28;103689;-81
2022/04/12 05:21:54;;;;;;;13.90;12.70;;;;;;;22.09;25.11;95492.53;6125567;28;102737;-81
2022/04/12 05:24:56;;;;;;;13.23;12.13;;;;;;;22.04;25.39;95488.09;6125174;28;102884;-80
2022/04/12 05:27:58;;;;;;;13.80;12.50;;;;;;;22.06;25.33;95487.81;6127931;28;103069;-81
2022/04/12 05:31:00;;;;;;;14.37;13.10;;;;;;;22.10;25.40;95489.56;6121845;28;105021;-81
2022/04/12 05:34:02;;;;;;;14.10;12.80;;;;;;;22.11;25.12;95496.47;6124565;28;103003;-81
2022/04/12 05:37:04;;;;;;;12.50;11.50;;;;;;;22.15;25.45;95502.00;6125622;28;105658;-79
2022/04/12 05:40:06;;;;;;;13.70;12.37;;;;;;;22.17;25.41;95504.38;6120794;28;103355;-79
2022/04/12 05:43:08;;;;;;;12.77;11.53;;;;;;;22.14;25.19;95494.31;6123997;28;106129;-81
2022/04/12 05:46:10;;;;;;;12.67;11.57;;;;;;;22.23;25.16;95496.00;6124516;28;103773;-78
2022/04/12 05:49:12;;;;;;;12.60;11.30;;;;;;;22.34;24.96;95496.59;6124717;28;102661;-79
2022/04/12 05:52:14;;;;;;;12.53;11.50;;;;;;;22.39;24.64;95489.31;6119265;28;104859;-79
2022/04/12 05:55:21;;;;;;;11.93;10.80;;;;;;;22.56;24.93;95501.25;6123791;28;103789;-80
2022/04/12 05:58:24;;;;;;;12.00;10.90;;;;;;;22.58;25.04;95494.56;6122459;28;103658;-80
2022/04/12 06:01:26;;;;;;;11.30;10.20;;;;;;;22.72;25.49;95509.78;6118940;28;104265;-80
2022/04/12 06:04:28;;;;;;;11.50;10.50;;;;;;;22.80;24.69;95503.72;6124714;28;102820;-80
2022/04/12 06:07:32;;;;;;;11.47;10.47;;;;;;;22.87;24.95;95507.59;6123441;28;103621;-80
2022/04/12 06:10:33;;;;;;;11.20;10.20;;;;;;;22.98;24.94;95516.94;6122962;28;103307;-80
2022/04/12 06:13:35;;;;;;;11.60;10.60;;;;;;;23.03;24.47;95510.72;6119295;28;103585;-81
2022/04/12 06:16:37;;;;;;;10.97;9.97;;;;;;;23.12;24.43;95514.25;6123779;28;102829;-79
2022/04/12 06:19:39;;;;;;;11.13;10.13;;;;;;;23.14;24.67;95511.28;6123574;28;102852;-81
2022/04/12 06:22:41;;;;;;;10.70;9.80;;;;;;;23.24;24.74;95525.19;6126049;28;104147;-81
2022/04/12 06:25:43;;;;;;;10.07;9.10;;;;;;;23.29;24.47;95524.31;6119839;28;102689;-82
2022/04/12 06:28:45;;;;;;;10.37;9.47;;;;;;;23.32;24.56;95525.59;6123254;28;103530;-79
2022/04/12 06:31:47;;;;;;;10.37;9.30;;;;;;;23.39;24.32;95528.66;6126059;28;106439;-80
2022/04/12 06:34:49;;;;;;;9.30;8.40;;;;;;;23.44;24.16;95526.66;6123140;28;106028;-81
2022/04/12 06:37:56;;;;;;;9.73;8.93;;;;;;;23.52;24.70;95535.81;6128174;28;103233;-80
2022/04/12 06:40:58;;;;;;;9.43;8.63;;;;;;;23.51;24.77;95521.66;6130990;28;102715;-79
2022/04/12 06:44:00;;;;;;;9.70;8.80;;;;;;;23.62;24.52;95538.25;6129702;28;103083;-82
2022/04/12 06:47:02;;;;;;;9.97;9.13;;;;;;;23.65;24.47;95548.34;6124852;28;102821;-80
2022/04/12 06:50:05;;;;;;;8.87;8.17;;;;;;;23.70;24.61;95540.22;6127430;28;105219;-79
2022/04/12 06:53:08;;;;;;;9.10;8.30;;;;;;;23.74;24.30;95538.50;6111236;28;103977;-79
2022/04/12 06:56:09;;;;;;;9.40;8.40;;;;;;;23.74;24.53;95529.69;6125502;28;102697;-79
2022/04/12 06:59:11;;;;;;;9.13;8.33;;;;;;;23.80;24.26;95523.13;6126253;28;103307;-79
2022/04/12 07:02:13;;;;;;;8.40;7.80;;;;;;;23.84;24.36;95535.56;6126200;28;103214;-80
2022/04/12 07:05:16;;;;;;;8.47;7.77;;;;;;;23.86;24.46;95535.28;6125183;28;103273;-79
2022/04/12 07:08:18;;;;;;;8.43;7.73;;;;;;;23.88;24.39;95536.56;6121927;28;103196;-80
2022/04/12 07:11:24;;;;;;;8.93;8.23;;;;;;;23.91;24.52;95535.16;6126636;28;103271;-82
2022/04/12 07:14:28;;;;;;;9.00;8.20;;;;;;;23.92;24.66;95525.25;6126999;28;103641;-82
2022/04/12 07:17:31;;;;;;;8.97;8.27;;;;;;;23.88;24.49;95515.19;6127157;28;105469;-78
2022/04/12 07:20:33;;;;;;;8.60;7.90;;;;;;;23.98;24.30;95521.34;6121865;28;102871;-78
2022/04/12 07:23:37;;;;;;;9.00;7.90;;;;;;;24.01;24.60;95526.13;6123586;28;107515;-78
2022/04/12 07:26:40;;;;;;;9.30;8.43;;;;;;;24.03;25.16;95522.06;6125541;28;102760;-80
2022/04/12 07:29:42;;;;;;;7.63;7.03;;;;;;;24.06;24.85;95526.00;6119357;28;103494;-81
2022/04/12 07:32:44;;;;;;;8.30;7.60;;;;;;;24.02;24.93;95517.78;6123847;28;103147;-79
2022/04/12 07:35:46;;;;;;;8.20;7.50;;;;;;;24.06;25.22;95516.09;6127223;28;104574;-82
2022/04/12 07:38:51;;;;;;;7.50;6.80;;;;;;;24.12;25.32;95524.78;6126006;28;102625;-81
2022/04/12 07:41:53;;;;;;;8.90;7.70;;;;;;;24.12;25.32;95528.22;6120853;28;105343;-79
2022/04/12 07:44:55;;;;;;;7.43;6.90;;;;;;;24.08;24.97;95513.91;6124515;28;103070;-79
2022/04/12 07:47:56;;;;;;;7.77;7.10;;;;;;;24.16;25.25;95515.03;6125653;28;106076;-77
2022/04/12 07:51:00;;;;;;;8.10;7.40;;;;;;;24.16;24.96;95523.84;6126500;28;103370;-79
2022/04/12 07:54:03;;;;;;;7.10;6.50;;;;;;;24.17;25.06;95508.59;6122949;28;107547;-80
2022/04/12 07:57:06;;;;;;;7.00;6.47;;;;;;;24.14;25.28;95504.66;6126421;28;104231;-79
2022/04/12 08:00:08;;;;;;;7.20;6.60;;;;;;;24.14;25.27;95503.84;6126112;28;103888;-79
2022/04/12 08:03:10;;;;;;;7.07;6.47;;;;;;;24.20;25.06;95497.28;6121366;28;102733;-81
2022/04/12 08:06:13;;;;;;;7.00;6.40;;;;;;;24.19;25.19;95496.50;6126916;28;102701;-80
2022/04/12 08:09:15;;;;;;;6.80;6.20;;;;;;;24.16;25.44;95485.63;6125776;28;103657;-82
2022/04/12 08:12:16;;;;;;;6.57;6.07;;;;;;;24.22;25.38;95497.78;6126763;28;103461;-78
2022/04/12 08:15:19;;;;;;;7.33;6.77;;;;;;;24.24;25.51;95492.13;6120667;28;103425;-80
2022/04/12 08:18:20;;;;;;;6.80;6.20;;;;;;;24.25;24.98;95486.44;6124019;28;103394;-80
2022/04/12 08:21:39;;;;;;;7.23;6.60;;;;;;;24.22;25.22;95481.72;6126375;28;106383;-80
2022/04/12 08:24:41;;;;;;;6.73;6.13;;;;;;;24.27;25.17;95484.25;6122848;28;102546;-81
2022/04/12 08:27:43;;;;;;;6.60;6.10;;;;;;;24.17;25.66;95465.78;6125176;28;103610;-80
2022/04/12 08:30:45;;;;;;;6.37;5.80;;;;;;;24.27;25.31;95473.56;6123182;28;103096;-79
2022/04/12 08:33:47;;;;;;;5.87;5.37;;;;;;;24.25;25.37;95469.63;6126685;28;106199;-80
2022/04/12 08:36:49;;;;;;;6.13;5.60;;;;;;;24.25;25.31;95464.28;6119830;28;103244;-80
2022/04/12 08:39:52;;;;;;;6.83;6.13;;;;;;;24.27;25.30;95470.09;6124640;28;102724;-78
2022/04/12 08:42:54;;;;;;;6.00;5.50;;;;;;;24.25;25.22;95456.25;6126352;28;106624;-80
2022/04/12 08:45:56;;;;;;;5.80;5.30;;;;;;;24.27;25.49;95462.84;6126327;28;104473;-78
2022/04/12 08:48:58;;;;;;;6.20;5.70;;;;;;;24.27;25.12;95462.06;6121326;28;103901;-82
2022/04/12 08:52:01;;;;;;;5.70;5.23;;;;;;;24.27;25.71;95457.50;6123325;28;105025;-80
2022/04/12 08:55:05;;;;;;;6.20;5.70;;;;;;;24.26;25.55;95455.94;6124921;28;105752;-78
2022/04/12 08:58:07;;;;;;;5.40;5.00;;;;;;;24.24;25.21;95449.31;6120157;28;104986;-80
2022/04/12 09:01:09;;;;;;;5.80;5.30;;;;;;;24.23;25.63;95445.88;6123377;28;103362;-81
2022/04/12 09:04:12;;;;;;;6.00;5.40;;;;;;;24.25;25.48;95449.00;6124272;28;102717;-78
2022/04/12 09:07:14;;;;;;;6.33;5.83;;;;;;;24.24;25.65;95442.09;6124748;28;102649;-80
2022/04/12 09:10:17;;;;;;;5.80;5.30;;;;;;;24.22;25.63;95436.25;6119156;28;102782;-81
2022/04/12 09:13:19;;;;;;;6.40;5.80;;;;;;;24.12;25.56;95415.94;6123541;28;103218;-78
2022/04/12 09:16:28;;;;;;;5.90;5.40;;;;;;;24.16;25.44;95424.13;6123306;28;103104;-79
2022/04/12 09:19:43;;;;;;;6.10;5.60;;;;;;;24.14;25.51;95421.75;6119934;28;105361;-78
2022/04/12 09:22:46;;;;;;;5.40;5.00;;;;;;;24.17;25.52;95431.03;6122830;28;102767;-82
2022/04/12 09:25:54;;;;;;;7.07;6.37;;;;;;;24.09;25.60;95419.22;6121758;28;104037;-81
2022/04/12 09:28:59;;;;;;;5.30;4.87;;;;;;;24.14;25.83;95420.97;6121248;28;103398;-79
2022/04/12 09:32:01;;;;;;;5.70;5.20;;;;;;;24.09;25.94;95413.09;6098600;28;104717;-82
2022/04/12 09:35:04;;;;;;;5.73;5.30;;;;;;;24.10;25.71;95410.09;6115382;28;102971;-77
2022/04/12 09:38:10;;;;;;;5.60;5.20;;;;;;;24.05;25.87;95402.22;6116969;28;103183;-80
2022/04/12 09:41:23;;;;;;;6.10;5.33;;;;;;;24.02;25.74;95402.03;6118603;28;102836;-79
2022/04/12 09:44:25;;;;;;;5.67;5.27;;;;;;;24.01;26.06;95401.25;6091710;28;103516;-79
2022/04/12 09:47:30;;;;;;;5.10;4.70;;;;;;;23.94;26.05;95392.09;6096078;28;103186;-79
2022/04/12 09:50:50;;;;;;;5.80;5.30;;;;;;;23.97;25.96;95392.25;6093523;28;103735;-79
2022/04/12 09:53:52;;;;;;;5.10;4.70;;;;;;;23.98;26.16;95395.72;6095549;28;103033;-80
2022/04/12 09:56:57;;;;;;;6.30;5.70;;;;;;;23.95;26.10;95382.97;6117208;28;103109;-80
2022/04/12 10:00:19;;;;;;;5.30;4.80;;;;;;;23.92;25.90;95384.38;6129160;28;103287;-79
2022/04/12 10:03:21;;;;;;;5.90;5.40;;;;;;;23.84;26.01;95366.41;6115816;28;103499;-79
2022/04/12 10:06:27;;;;;;;5.67;5.23;;;;;;;23.84;26.01;95363.72;6111521;28;104108;-79
2022/04/12 10:09:34;;;;;;;5.80;5.30;;;;;;;23.85;25.98;95363.41;6121177;28;103622;-79
2022/04/12 10:12:37;;;;;;;6.03;5.53;;;;;;;23.81;26.57;95359.00;6120036;28;103050;-80
2022/04/12 10:15:39;;;;;;;5.93;5.43;;;;;;;23.79;26.35;95350.50;6116534;28;103548;-81
2022/04/12 10:18:41;;;;;;;5.73;5.27;;;;;;;23.73;26.68;95354.44;6125003;28;104984;-81
2022/04/12 10:21:43;;;;;;;5.33;4.90;;;;;;;23.73;26.05;95351.75;6125679;28;103566;-82
2022/04/12 10:24:46;;;;;;;5.73;5.23;;;;;;;23.68;26.05;95330.50;6123780;28;104329;-81
2022/04/12 10:27:51;;;;;;;5.60;5.20;;;;;;;23.67;26.50;95343.06;6118932;28;102977;-81
2022/04/12 10:31:02;;;;;;;5.57;5.10;;;;;;;23.58;26.51;95331.56;6121057;28;103314;-80
2022/04/12 10:34:24;;;;;;;5.30;4.90;;;;;;;23.58;26.52;95324.34;6121136;28;103225;-79
2022/04/12 10:37:27;;;;;;;5.07;4.67;;;;;;;23.59;26.67;95325.13;6117868;28;103508;-79
2022/04/12 10:40:52;;;;;;;5.60;5.20;;;;;;;23.57;26.77;95322.00;6111813;28;102875;-81
2022/04/12 10:43:56;;;;;;;5.70;5.30;;;;;;;23.56;26.37;95323.88;6125920;28;102657;-81
2022/04/12 10:46:59;;;;;;;5.90;5.47;;;;;;;23.54;26.36;95312.72;6126004;28;106202;-81
2022/04/12 10:50:13;;;;;;;4.93;4.53;;;;;;;23.52;26.99;95319.44;6123241;28;103103;-79
2022/04/12 10:53:15;;;;;;;5.60;5.20;;;;;;;23.47;26.55;95306.22;6126538;28;105511;-79
2022/04/12 10:56:24;;;;;;;5.00;4.60;;;;;;;23.44;26.43;95302.28;6129266;28;104625;-79
2022/04/12 10:59:41;;;;;;;6.27;5.77;;;;;;;23.48;26.64;95310.47;6125430;28;102641;-81
2022/04/12 11:02:53;;;;;;;6.37;5.77;;;;;;;23.46;26.77;95304.66;6130516;28;104007;-81
2022/04/12 11:05:55;;;;;;;5.73;5.30;;;;;;;23.44;26.40;95296.94;6129673;28;103204;-80
2022/04/12 11:09:05;;;;;;;5.90;5.40;;;;;;;23.47;27.07;95300.88;6128667;28;103095;-78
2022/04/12 11:12:14;;;;;;;5.50;5.10;;;;;;;23.44;26.85;95296.16;6126249;28;102651;-78
2022/04/12 11:15:30;;;;;;;5.60;5.20;;;;;;;23.47;26.82;95292.88;6130291;28;102923;-80
2022/04/12 11:18:58;;;;;;;4.90;4.60;;;;;;;23.46;26.79;95296.63;6132873;28;103312;-80
2022/04/12 11:22:02;;;;;;;5.40;5.00;;;;;;;23.40;26.86;95284.53;6109434;28;102756;-76
2022/04/12 11:25:19;;;;;;;5.53;5.13;;;;;;;23.43;27.09;95282.00;6130279;28;106266;-77
2022/04/12 11:28:22;;;;;;;5.83;5.40;;;;;;;23.44;26.59;95280.91;6127871;28;103362;-76
2022/04/12 11:31:24;;;;;;;5.70;5.20;;;;;;;23.43;26.80;95268.66;6127699;28;103412;-78
2022/04/12 11:34:28;;;;;;;6.00;5.40;;;;;;;23.39;27.09;95259.69;6124212;28;102866;-76
2022/04/12 11:37:31;;;;;;;6.10;5.57;;;;;;;23.41;26.85;95259.38;6128309;28;103047;-77
2022/04/12 11:40:43;;;;;;;5.70;5.20;;;;;;;23.36;27.29;95251.53;6126953;28;103022;-76
2022/04/12 11:43:45;;;;;;;5.77;5.27;;;;;;;23.37;26.77;95253.09;6121281;28;103343;-77
2022/04/12 11:46:57;;;;;;;5.40;5.00;;;;;;;23.35;26.98;95239.22;6127371;28;104132;-76
2022/04/12 11:50:00;;;;;;;5.90;5.40;;;;;;;23.35;27.35;95245.38;6126256;28;103482;-78
2022/04/12 11:53:04;;;;;;;5.57;5.17;;;;;;;23.27;27.13;95238.88;6126397;28;103440;-76
2022/04/12 11:56:05;;;;;;;5.70;5.20;;;;;;;23.29;26.91;95235.94;6121069;28;104269;-75
2022/04/12 11:59:08;;;;;;;5.93;5.47;;;;;;;23.25;27.36;95224.25;6125490;28;103738;-78
2022/04/12 12:02:11;;;;;;;5.70;5.30;;;;;;;23.30;26.99;95230.28;6125205;28;104440;-77
2022/04/12 12:05:13;;;;;;;5.97;5.57;;;;;;;23.27;26.90;95228.19;6121201;28;103538;-77
2022/04/12 12:08:22;;;;;;;5.30;4.90;;;;;;;23.30;27.00;95227.59;6126637;28;105409;-76
2022/04/12 12:11:26;;;;;;;5.97;5.47;;;;;;;23.27;27.24;95217.50;6128012;28;102968;-78
2022/04/12 12:14:29;;;;;;;6.27;5.77;;;;;;;23.25;27.00;95209.03;6126679;28;102885;-77
2022/04/12 12:17:31;;;;;;;6.20;5.70;;;;;;;23.25;27.10;95208.25;6121627;28;102777;-77
2022/04/12 12:20:38;;;;;;;6.23;5.77;;;;;;;23.24;27.10;95196.78;6125556;28;103021;-78
2022/04/12 12:23:39;;;;;;;5.67;5.27;;;;;;;23.25;27.31;95203.69;6125310;28;102541;-77
2022/04/12 12:26:41;;;;;;;5.30;4.90;;;;;;;23.24;27.24;95201.31;6123076;28;103303;-74
2022/04/12 12:29:46;;;;;;;6.57;6.07;;;;;;;23.21;27.16;95194.72;6120566;28;102713;-76
2022/04/12 12:32:56;;;;;;;6.57;5.97;;;;;;;23.20;26.93;95195.81;6122905;28;103241;-77
2022/04/12 12:35:58;;;;;;;6.60;6.10;;;;;;;23.19;27.04;95190.78;6122905;28;103049;-77
2022/04/12 12:39:09;;;;;;;6.23;5.73;;;;;;;23.21;27.66;95196.59;6119499;28;102774;-76
2022/04/12 12:42:10;;;;;;;7.20;6.60;;;;;;;23.16;27.33;95175.38;6123097;28;102880;-76
2022/04/12 12:45:17;;;;;;;7.03;6.50;;;;;;;23.17;27.46;95193.75;6122532;28;105479;-77
2022/04/12 12:48:19;;;;;;;6.90;6.40;;;;;;;23.17;27.43;95191.06;6123267;28;103787;-77
2022/04/12 12:51:22;;;;;;;6.57;6.07;;;;;;;23.17;27.06;95182.28;6118412;28;103657;-77
2022/04/12 12:54:25;;;;;;;5.77;5.37;;;;;;;23.13;27.67;95171.44;6122098;28;103047;-76
2022/04/12 12:57:44;;;;;;;6.80;6.20;;;;;;;23.13;27.28;95158.09;6122498;28;104931;-76
2022/04/12 13:00:47;;;;;;;6.83;6.33;;;;;;;23.15;27.47;95158.56;6119641;28;104213;-78
2022/04/12 13:03:55;;;;;;;6.77;6.27;;;;;;;23.14;27.11;95156.22;6124837;28;102996;-75
2022/04/12 13:07:13;;;;;;;6.37;5.87;;;;;;;23.15;27.11;95155.91;6124648;28;103079;-75
2022/04/12 13:10:18;;;;;;;6.83;6.33;;;;;;;23.15;27.18;95147.88;6123903;28;103324;-75
2022/04/12 13:13:19;;;;;;;6.20;5.80;;;;;;;23.11;27.34;95144.28;6134684;28;102766;-76
2022/04/12 13:16:21;;;;;;;6.17;5.67;;;;;;;23.14;27.44;95151.66;6122669;28;104973;-77
2022/04/12 13:19:28;;;;;;;6.73;6.23;;;;;;;23.13;27.80;95152.75;6126602;28;104307;-79
2022/04/12 13:22:32;;;;;;;6.73;6.23;;;;;;;23.11;27.38;95146.94;6119507;28;103468;-76
2022/04/12 13:25:34;;;;;;;6.80;6.20;;;;;;;23.11;27.41;95132.81;6122294;28;103120;-79
2022/04/12 13:28:39;;;;;;;6.60;6.10;;;;;;;23.12;27.39;95145.84;6123197;28;103086;-78
2022/04/12 13:31:47;;;;;;;6.97;6.47;;;;;;;23.10;27.83;95129.34;6123369;28;105211;-78
2022/04/12 13:34:50;;;;;;;6.03;5.53;;;;;;;23.11;27.72;95133.59;6118552;28;103740;-77
2022/04/12 13:37:52;;;;;;;6.17;5.73;;;;;;;23.08;27.33;95134.22;6123927;28;103336;-76
2022/04/12 13:40:54;;;;;;;6.10;5.60;;;;;;;23.05;27.74;95110.03;6122445;28;102697;-78
2022/04/12 13:43:56;;;;;;;7.10;6.50;;;;;;;23.06;27.36;95125.75;6118168;28;103202;-80
2022/04/12 13:47:21;;;;;;;6.33;5.90;;;;;;;23.09;27.69;95130.44;6119799;28;102749;-77
2022/04/12 13:50:23;;;;;;;6.10;5.63;;;;;;;23.05;27.42;95116.16;6122143;28;103626;-78
2022/04/12 13:53:25;;;;;;;6.93;6.43;;;;;;;23.06;27.61;95125.75;6123479;28;103110;-82
2022/04/12 13:56:27;;;;;;;6.73;6.23;;;;;;;23.06;27.91;95123.06;6125614;28;103314;-84
2022/04/12 13:59:29;;;;;;;6.80;6.20;;;;;;;23.01;27.45;95107.19;6126092;28;103360;-85
2022/04/12 14:02:31;;;;;;;7.47;6.83;;;;;;;23.05;27.90;95113.50;6118530;28;107155;-85
2022/04/12 14:05:33;;;;;;;8.60;6.97;;;;;;;23.00;28.06;95102.94;6108737;28;103398;-82
2022/04/12 14:08:38;;;;;;;7.90;7.30;;;;;;;23.04;27.99;95105.78;6120948;28;103534;-84
2022/04/12 14:11:42;;;;;;;7.57;6.97;;;;;;;23.06;28.18;95115.06;6125745;28;103759;-82